Okauchee, Wisconsin
Current Conditions -  °F | °C
As of 9:55 PM on Friday 24 Oct 2014 (Local Time) from KUES Reporting Station
Overcast Overcast  
Wind Chill: 54°   Ceiling: 3300
Heat Index: 54°   Visibility: 10mi
Dew Point: 50°   Wind: 5mph
Humidity: 88%   Direction: 180°S
Pressure: 29.92"   Gusts: NA
Location:  43.11°N, 88.44°W
Report Text: KUES 250255Z AUTO 18004KT 10SM OVC033 12/10 A2992 RMK AO2
Loading
Personal Weather Stations






























Interactive Weather Map
Tropical Storm Tracking
New forecast layout! Learn more

10-Day Weather Forecast

Advertisements
Track Severe Weather on mobile